Star Helena — V7KJ9 — position and weather

sailwx.info

Track history (hours):
 
Tides and Currents Weather Stations Pressure Air Temp Water Temp Dewpoint Dewpoint Depression Visibility Wind Speed Wind Dir Waves Ship Positions

Star Helena

Last reported at 2016-May-16 04:16 UTC. Time now 2016-May-27 04:24 UTC.
Position N 41°00' E 028°60'.
Warning: this ship's position is 11 days out of date.

Length 229 m; draft 10.3 m.

Type: Cargo ship. MMSI: 538002630.

Date/timePositionNaut miles runAvg speedWind from/ knotsBaromVisibWave heightAir tempDewpointWater temp
2016-May-16 04:16N 41°00' E 028°60'5 6.6
2016-May-16 03:31N 40°55' E 028°57'3 2.6
2016-May-16 02:30N 40°58' E 028°55'0 0.0
2016-May-16 01:24N 40°58' E 028°55'0 0.0
2016-May-16 00:30N 40°58' E 028°55'0 0.0
2016-May-15 23:18N 40°58' E 028°55'0 0.0
2016-May-15 22:30N 40°58' E 028°55'0 0.0
2016-May-15 21:06N 40°58' E 028°55'0 0.0
2016-May-15 19:30N 40°58' E 028°55'0 0.0
2016-May-15 18:24N 40°58' E 028°55'0 0.0
2016-May-15 17:30N 40°58' E 028°55'0 0.1
2016-May-15 14:06N 40°58' E 028°55'0 0.0
2016-May-15 11:12N 40°58' E 028°56'0 0.0
2016-May-15 09:18N 40°58' E 028°55'0 0.0
2016-May-15 08:30N 40°58' E 028°55'0 0.0
2016-May-15 07:24N 40°58' E 028°55'0 0.0
2016-May-15 06:18N 40°58' E 028°55'161 7.4
2016-May-14 08:32N 39°45' E 025°47'1 1.0
2016-May-14 07:27N 39°44' E 025°47'390 9.5
2016-May-12 14:30N 33°58' E 029°33'6611.2
2016-May-12 08:33N 33°08' E 030°27'6811.3
2016-May-12 02:32N 32°18' E 031°21'2411.5
2016-May-12 00:28N 32°00' E 031°40'2211.4
2016-May-11 22:33N 31°45' E 031°59'38 9.0
2016-May-11 18:17N 31°11' E 032°20'25 8.9
2016-May-11 15:28N 30°46' E 032°20'  
Track history (hours):
 
Tides and Currents Weather Stations Pressure Air Temp Water Temp Dewpoint Dewpoint Depression Visibility Wind Speed Wind Dir Waves Ship Positions

Star Helena

Last reported at 2016-May-16 04:16 UTC. Time now 2016-May-27 04:24 UTC.
Position N 41°00' E 028°60'.
Warning: this ship's position is 11 days out of date.

Length 229 m; draft 10.3 m.

Type: Cargo ship. MMSI: 538002630.

Date/timePositionNaut miles runAvg speedWind from/ knotsBaromVisibWave heightAir tempDewpointWater temp
2016-May-16 04:16N 41°00' E 028°60'5 6.6
2016-May-16 03:31N 40°55' E 028°57'3 2.6
2016-May-16 02:30N 40°58' E 028°55'0 0.0
2016-May-16 01:24N 40°58' E 028°55'0 0.0
2016-May-16 00:30N 40°58' E 028°55'0 0.0
2016-May-15 23:18N 40°58' E 028°55'0 0.0
2016-May-15 22:30N 40°58' E 028°55'0 0.0
2016-May-15 21:06N 40°58' E 028°55'0 0.0
2016-May-15 19:30N 40°58' E 028°55'0 0.0
2016-May-15 18:24N 40°58' E 028°55'0 0.0
2016-May-15 17:30N 40°58' E 028°55'0 0.1
2016-May-15 14:06N 40°58' E 028°55'0 0.0
2016-May-15 11:12N 40°58' E 028°56'0 0.0
2016-May-15 09:18N 40°58' E 028°55'0 0.0
2016-May-15 08:30N 40°58' E 028°55'0 0.0
2016-May-15 07:24N 40°58' E 028°55'0 0.0
2016-May-15 06:18N 40°58' E 028°55'161 7.4
2016-May-14 08:32N 39°45' E 025°47'1 1.0
2016-May-14 07:27N 39°44' E 025°47'390 9.5
2016-May-12 14:30N 33°58' E 029°33'6611.2
2016-May-12 08:33N 33°08' E 030°27'6811.3
2016-May-12 02:32N 32°18' E 031°21'2411.5
2016-May-12 00:28N 32°00' E 031°40'2211.4
2016-May-11 22:33N 31°45' E 031°59'38 9.0
2016-May-11 18:17N 31°11' E 032°20'25 8.9
2016-May-11 15:28N 30°46' E 032°20'  

Dump ship's entire track history